createdAt,value
2022-08-16T00:01:59.835Z,100300.34
2022-08-16T00:05:03.028Z,100297.16
2022-08-16T00:08:05.078Z,100299.59
2022-08-16T00:11:15.078Z,100295.59
2022-08-16T00:14:23.385Z,100300.53
2022-08-16T00:17:57.057Z,100301.28
2022-08-16T00:20:52.809Z,100305.59
2022-08-16T00:23:54.732Z,100300.69
2022-08-16T00:26:57.129Z,100306.84
2022-08-16T00:30:08.574Z,100310.97
2022-08-16T00:33:11.124Z,100307.78
2022-08-16T00:36:13.536Z,100311.06
2022-08-16T00:39:17.463Z,100309.75
2022-08-16T00:42:29.680Z,100310.50
2022-08-16T00:46:00.489Z,100313.47
2022-08-16T00:49:18.750Z,100304.56
2022-08-16T00:52:23.774Z,100315.50
2022-08-16T00:55:37.911Z,100313.34
2022-08-16T00:58:44.025Z,100312.34
2022-08-16T01:01:45.848Z,100323.06
2022-08-16T01:05:10.417Z,100319.06
2022-08-16T01:08:35.463Z,100324.97
2022-08-16T01:11:37.136Z,100313.69
2022-08-16T01:14:59.778Z,100316.09
2022-08-16T01:18:04.326Z,100313.94
2022-08-16T01:21:22.381Z,100315.50
2022-08-16T01:24:52.050Z,100306.59
2022-08-16T01:27:51.356Z,100314.28
2022-08-16T01:30:56.705Z,100318.09
2022-08-16T01:33:59.796Z,100334.88
2022-08-16T01:37:07.589Z,100332.72
2022-08-16T01:40:12.632Z,100345.72
2022-08-16T01:43:14.252Z,100346.91
2022-08-16T01:46:39.173Z,100340.19
2022-08-16T01:50:41.069Z,100332.28
2022-08-16T01:53:06.555Z,100336.53
2022-08-16T01:56:23.511Z,100344.97
2022-08-16T01:59:28.013Z,100341.13
2022-08-16T02:02:29.972Z,100344.34
2022-08-16T02:05:31.741Z,100342.16
2022-08-16T02:08:36.445Z,100354.50
2022-08-16T02:11:47.909Z,100354.13
2022-08-16T02:14:54.604Z,100355.50
2022-08-16T02:17:58.636Z,100355.84
2022-08-16T02:21:01.689Z,100358.88
2022-08-16T02:24:17.568Z,100352.81
2022-08-16T02:27:27.835Z,100359.25
2022-08-16T02:30:37.350Z,100346.75
2022-08-16T02:33:50.647Z,100354.19
2022-08-16T02:36:52.457Z,100351.81
2022-08-16T02:39:54.429Z,100353.19
2022-08-16T02:42:56.627Z,100360.94
2022-08-16T02:45:58.789Z,100359.94
2022-08-16T02:49:01.738Z,100365.16
2022-08-16T02:52:03.780Z,100367.69
2022-08-16T02:55:11.728Z,100354.19
2022-08-16T02:58:17.595Z,100355.03
2022-08-16T03:01:37.141Z,100343.06
2022-08-16T03:04:51.167Z,100355.03
2022-08-16T03:07:54.409Z,100347.63
2022-08-16T03:10:56.125Z,100343.91
2022-08-16T03:14:01.082Z,100336.84
2022-08-16T03:17:08.991Z,100334.97
2022-08-16T03:20:14.317Z,100332.78
2022-08-16T03:23:19.959Z,100337.34
2022-08-16T03:26:22.028Z,100327.41
2022-08-16T03:29:29.866Z,100328.25
2022-08-16T03:32:31.868Z,100324.69
2022-08-16T03:35:35.805Z,100324.69
2022-08-16T03:38:37.855Z,100321.47
2022-08-16T03:41:50.619Z,100325.50
2022-08-16T03:44:52.660Z,100333.25
2022-08-16T03:48:07.213Z,100328.56
2022-08-16T03:51:12.247Z,100324.47
2022-08-16T03:54:14.420Z,100322.28
2022-08-16T03:57:16.538Z,100321.63
2022-08-16T04:00:35.826Z,100334.44
2022-08-16T04:03:43.237Z,100336.44
2022-08-16T04:06:45.872Z,100336.94
2022-08-16T04:09:48.398Z,100332.03
2022-08-16T04:12:53.149Z,100333.53
2022-08-16T04:15:59.284Z,100342.81
2022-08-16T04:19:04.849Z,100344.81
2022-08-16T04:22:08.573Z,100345.00
2022-08-16T04:25:12.815Z,100334.53
2022-08-16T04:28:51.870Z,100334.88
2022-08-16T04:31:36.451Z,100339.41
2022-08-16T04:34:39.706Z,100338.22
2022-08-16T04:37:42.632Z,100341.78
2022-08-16T04:40:44.372Z,100347.03
2022-08-16T04:43:51.221Z,100354.94
2022-08-16T04:47:02.601Z,100362.03
2022-08-16T04:50:18.107Z,100366.38
2022-08-16T04:53:19.836Z,100366.72
2022-08-16T04:56:21.399Z,100367.75
2022-08-16T04:59:26.012Z,100376.50
2022-08-16T05:02:41.591Z,100373.47
2022-08-16T05:05:59.154Z,100386.63
2022-08-16T05:09:04.572Z,100376.69
2022-08-16T05:12:06.264Z,100379.91
2022-08-16T05:15:13.034Z,100384.00
2022-08-16T05:18:16.685Z,100383.88
2022-08-16T05:21:23.188Z,100387.09
2022-08-16T05:24:25.054Z,100393.16
2022-08-16T05:27:27.404Z,100398.22
2022-08-16T05:30:35.134Z,100386.38
2022-08-16T05:33:38.901Z,100386.88
2022-08-16T05:36:44.191Z,100391.34
2022-08-16T05:39:45.883Z,100392.31
2022-08-16T05:42:49.268Z,100400.03
2022-08-16T05:45:52.148Z,100404.94
2022-08-16T05:48:54.844Z,100412.53
2022-08-16T05:52:00.012Z,100413.03
2022-08-16T05:55:02.630Z,100412.31
2022-08-16T05:58:04.599Z,100420.56
2022-08-16T06:01:07.006Z,100413.75
2022-08-16T06:04:13.710Z,100415.56
2022-08-16T06:07:35.763Z,100424.13
2022-08-16T06:11:09.738Z,100414.16
2022-08-16T06:14:10.895Z,100421.44
2022-08-16T06:17:15.259Z,100424.78
2022-08-16T06:20:25.631Z,100417.19
2022-08-16T06:23:39.618Z,100418.69
2022-08-16T06:26:45.915Z,100418.78
2022-08-16T06:30:00.784Z,100428.25
2022-08-16T06:33:05.374Z,100423.31
2022-08-16T06:36:09.051Z,100429.44
2022-08-16T06:39:12.417Z,100430.75
2022-08-16T06:42:13.992Z,100427.69
2022-08-16T06:45:20.908Z,100437.13
2022-08-16T06:48:32.904Z,100434.22
2022-08-16T06:51:45.754Z,100441.84
2022-08-16T06:54:50.336Z,100430.47
2022-08-16T06:57:54.100Z,100438.69
2022-08-16T07:00:55.659Z,100437.13
2022-08-16T07:04:01.169Z,100445.34
2022-08-16T07:07:06.224Z,100444.81
2022-08-16T07:10:12.305Z,100442.38
2022-08-16T07:13:26.545Z,100452.50
2022-08-16T07:16:37.742Z,100447.19
2022-08-16T07:20:04.078Z,100454.44
2022-08-16T07:23:02.475Z,100450.78
2022-08-16T07:26:25.288Z,100445.50
2022-08-16T07:29:28.113Z,100451.19
2022-08-16T07:32:33.446Z,100454.84
2022-08-16T07:35:44.246Z,100454.75
2022-08-16T07:38:52.327Z,100459.22
2022-08-16T07:41:53.924Z,100463.06
2022-08-16T07:44:57.188Z,100462.50
2022-08-16T07:47:59.391Z,100459.25
2022-08-16T07:51:12.931Z,100465.97
2022-08-16T07:54:21.208Z,100471.72
2022-08-16T07:57:37.968Z,100478.44
2022-08-16T08:00:47.807Z,100478.06
2022-08-16T08:03:50.147Z,100488.34
2022-08-16T08:06:53.115Z,100482.34
2022-08-16T08:09:56.504Z,100493.31
2022-08-16T08:12:59.351Z,100483.59
2022-08-16T08:16:01.319Z,100490.31
2022-08-16T08:19:03.260Z,100498.88
2022-08-16T08:22:06.996Z,100495.63
2022-08-16T08:25:09.456Z,100506.56
2022-08-16T08:28:16.105Z,100506.63
2022-08-16T08:31:18.893Z,100497.72
2022-08-16T08:34:22.307Z,100498.03
2022-08-16T08:37:25.594Z,100498.94
2022-08-16T08:40:29.400Z,100500.91
2022-08-16T08:43:31.603Z,100490.09
2022-08-16T08:46:43.545Z,100501.22
2022-08-16T08:50:03.780Z,100495.22
2022-08-16T08:53:06.481Z,100497.81
2022-08-16T08:56:23.806Z,100495.16
2022-08-16T08:59:27.307Z,100504.00
2022-08-16T09:02:29.839Z,100499.31
2022-08-16T09:05:35.749Z,100504.59
2022-08-16T09:08:37.695Z,100503.63
2022-08-16T09:11:41.056Z,100510.81
2022-08-16T09:14:49.507Z,100517.34
2022-08-16T09:17:55.736Z,100514.88
2022-08-16T09:21:01.771Z,100514.91
2022-08-16T09:24:09.851Z,100514.94
2022-08-16T09:27:13.180Z,100514.81
2022-08-16T09:30:33.655Z,100514.91
2022-08-16T09:33:37.173Z,100515.34
2022-08-16T09:36:45.209Z,100509.75
2022-08-16T09:39:50.331Z,100520.69
2022-08-16T09:42:56.569Z,100519.03
2022-08-16T09:46:02.691Z,100520.97
2022-08-16T09:49:04.638Z,100525.78
2022-08-16T09:52:11.000Z,100531.25
2022-08-16T09:55:12.633Z,100529.00
2022-08-16T09:58:40.779Z,100535.91
2022-08-16T10:01:38.566Z,100528.38
2022-08-16T10:04:54.632Z,100530.53
2022-08-16T10:07:57.031Z,100541.66
2022-08-16T10:11:24.601Z,100528.88
2022-08-16T10:14:33.361Z,100534.16
2022-08-16T10:17:35.818Z,100540.28
2022-08-16T10:20:45.041Z,100535.91
2022-08-16T10:23:48.575Z,100546.59
2022-08-16T10:27:18.899Z,100555.84
2022-08-16T10:30:26.168Z,100549.78
2022-08-16T10:33:33.944Z,100538.53
2022-08-16T10:36:39.263Z,100540.63
2022-08-16T10:39:42.525Z,100539.22
2022-08-16T10:42:44.320Z,100552.63
2022-08-16T10:45:59.905Z,100549.44
2022-08-16T10:49:05.092Z,100545.22
2022-08-16T10:52:18.255Z,100551.44
2022-08-16T10:58:43.456Z,100552.84
2022-08-16T11:02:21.789Z,100554.00
2022-08-16T11:05:11.707Z,100549.22
2022-08-16T11:08:13.417Z,100553.97
2022-08-16T11:11:22.479Z,100553.03
2022-08-16T11:14:24.656Z,100552.28
2022-08-16T11:17:27.640Z,100550.88
2022-08-16T11:20:48.815Z,100568.66
2022-08-16T11:23:57.812Z,100566.47
2022-08-16T11:30:28.462Z,100565.94
2022-08-16T11:33:55.815Z,100567.78
2022-08-16T11:37:01.265Z,100560.72
2022-08-16T11:40:06.839Z,100564.59
2022-08-16T11:43:11.422Z,100573.22
2022-08-16T11:46:44.940Z,100569.09
2022-08-16T11:49:39.766Z,100579.00
2022-08-16T11:52:41.393Z,100576.06
2022-08-16T11:55:50.532Z,100579.38
2022-08-16T11:58:57.168Z,100581.66
2022-08-16T12:02:30.939Z,100576.44
2022-08-16T12:05:23.101Z,100578.00
2022-08-16T12:08:26.388Z,100575.88
2022-08-16T12:11:31.243Z,100579.22
2022-08-16T12:14:35.355Z,100574.81
2022-08-16T12:17:39.621Z,100579.22
2022-08-16T12:20:44.099Z,100580.66
2022-08-16T12:23:47.416Z,100583.31
2022-08-16T12:26:49.124Z,100579.72
2022-08-16T12:29:52.644Z,100566.09
2022-08-16T12:32:57.708Z,100565.25
2022-08-16T12:36:00.635Z,100569.97
2022-08-16T12:39:04.578Z,100570.25
2022-08-16T12:42:12.145Z,100566.94
2022-08-16T12:45:15.249Z,100570.53
2022-08-16T12:48:43.165Z,100571.38
2022-08-16T12:51:58.710Z,100573.78
2022-08-16T12:55:02.954Z,100571.25
2022-08-16T12:58:06.147Z,100567.91
2022-08-16T13:01:17.027Z,100569.34
2022-08-16T13:04:19.742Z,100576.16
2022-08-16T13:07:27.337Z,100583.09
2022-08-16T13:10:38.156Z,100588.56
2022-08-16T13:13:41.024Z,100589.25
2022-08-16T13:16:43.110Z,100583.63
2022-08-16T13:23:11.537Z,100580.22
2022-08-16T13:26:17.493Z,100572.94
2022-08-16T13:29:19.733Z,100579.63
2022-08-16T13:32:40.226Z,100566.06
2022-08-16T13:35:45.017Z,100577.19
2022-08-16T13:38:46.949Z,100574.56
2022-08-16T13:41:53.896Z,100578.75
2022-08-16T13:44:58.493Z,100578.13
2022-08-16T13:48:02.461Z,100579.31
2022-08-16T13:51:07.502Z,100579.38
2022-08-16T13:54:09.230Z,100579.97
2022-08-16T13:57:11.877Z,100575.66
2022-08-16T14:00:14.519Z,100567.28
2022-08-16T14:03:21.824Z,100567.38
2022-08-16T14:06:25.581Z,100568.44
2022-08-16T14:09:32.026Z,100561.53
2022-08-16T14:12:36.513Z,100572.56
2022-08-16T14:15:38.265Z,100570.44
2022-08-16T14:18:43.834Z,100567.31
2022-08-16T14:22:04.835Z,100569.97
2022-08-16T14:25:16.583Z,100568.97
2022-08-16T14:28:20.370Z,100559.88
2022-08-16T14:31:27.763Z,100568.72
2022-08-16T14:34:30.032Z,100561.19
2022-08-16T14:37:32.937Z,100556.88
2022-08-16T14:40:35.659Z,100563.31
2022-08-16T14:43:37.649Z,100562.63
2022-08-16T14:46:41.837Z,100567.41
2022-08-16T14:49:44.624Z,100564.31
2022-08-16T14:52:56.438Z,100570.28
2022-08-16T14:55:59.020Z,100572.06
2022-08-16T14:59:01.060Z,100568.34
2022-08-16T15:02:07.781Z,100580.22
2022-08-16T15:05:12.804Z,100578.66
2022-08-16T15:08:17.719Z,100578.78
2022-08-16T15:11:22.026Z,100579.69
2022-08-16T15:14:23.681Z,100576.09
2022-08-16T15:17:27.722Z,100578.53
2022-08-16T15:20:38.747Z,100571.41
2022-08-16T15:23:41.362Z,100578.25
2022-08-16T15:26:45.200Z,100585.69
2022-08-16T15:29:48.798Z,100580.91
2022-08-16T15:33:09.216Z,100582.25
2022-08-16T15:36:20.457Z,100583.44
2022-08-16T15:39:31.775Z,100592.75
2022-08-16T15:42:44.249Z,100587.25
2022-08-16T15:46:13.808Z,100575.44
2022-08-16T15:49:46.416Z,100581.53
2022-08-16T15:52:48.369Z,100577.00
2022-08-16T15:55:51.946Z,100588.34
2022-08-16T15:58:57.076Z,100591.69
2022-08-16T16:01:59.375Z,100588.94
2022-08-16T16:05:04.314Z,100588.94
2022-08-16T16:08:11.838Z,100590.13
2022-08-16T16:11:15.649Z,100590.47
2022-08-16T16:14:18.412Z,100597.97
2022-08-16T16:17:20.371Z,100593.44
2022-08-16T16:20:24.320Z,100591.03
2022-08-16T16:23:35.709Z,100591.97
2022-08-16T16:26:43.285Z,100595.78
2022-08-16T16:29:58.153Z,100588.16
2022-08-16T16:33:05.404Z,100583.50
2022-08-16T16:36:08.977Z,100598.06
2022-08-16T16:39:11.008Z,100602.69
2022-08-16T16:42:25.653Z,100597.91
2022-08-16T16:45:33.347Z,100602.44
2022-08-16T16:48:36.617Z,100595.13
2022-08-16T16:51:40.809Z,100603.47
2022-08-16T16:54:42.844Z,100611.56
2022-08-16T16:58:07.382Z,100610.91
2022-08-16T17:01:20.541Z,100612.47
2022-08-16T17:04:32.016Z,100614.16
2022-08-16T17:07:34.349Z,100626.41
2022-08-16T17:10:46.722Z,100622.44
2022-08-16T17:13:53.133Z,100628.28
2022-08-16T17:16:55.163Z,100636.34
2022-08-16T17:19:56.884Z,100634.72
2022-08-16T17:23:01.129Z,100640.50
2022-08-16T17:26:02.971Z,100653.69
2022-08-16T17:29:12.117Z,100655.13
2022-08-16T17:32:44.316Z,100652.78
2022-08-16T17:35:45.626Z,100661.28
2022-08-16T17:38:57.591Z,100666.91
2022-08-16T17:42:01.118Z,100668.47
2022-08-16T17:45:02.884Z,100676.56
2022-08-16T17:48:05.345Z,100677.22
2022-08-16T17:51:07.105Z,100693.72
2022-08-16T17:54:08.799Z,100685.41
2022-08-16T17:57:30.359Z,100698.72
2022-08-16T18:00:32.468Z,100702.34
2022-08-16T18:04:06.717Z,100714.34
2022-08-16T18:07:05.285Z,100717.53
2022-08-16T18:10:08.625Z,100718.19
2022-08-16T18:13:11.205Z,100719.47
2022-08-16T18:16:15.893Z,100719.91
2022-08-16T18:19:17.485Z,100725.41
2022-08-16T18:22:29.823Z,100725.41
2022-08-16T18:25:32.128Z,100726.50
2022-08-16T18:28:35.547Z,100735.53
2022-08-16T18:31:38.890Z,100738.25
2022-08-16T18:34:42.315Z,100740.34
2022-08-16T18:37:44.058Z,100736.19
2022-08-16T18:40:46.162Z,100737.22
2022-08-16T18:44:23.867Z,100736.59
2022-08-16T18:47:10.095Z,100734.69
2022-08-16T18:50:11.670Z,100741.63
2022-08-16T18:53:15.061Z,100741.63
2022-08-16T18:56:16.716Z,100739.91
2022-08-16T18:59:18.548Z,100745.38
2022-08-16T19:02:57.539Z,100761.53
2022-08-16T19:05:50.888Z,100765.06
2022-08-16T19:08:54.314Z,100773.88
2022-08-16T19:11:55.912Z,100763.59
2022-08-16T19:14:58.119Z,100764.38
2022-08-16T19:18:00.439Z,100769.41
2022-08-16T19:21:02.309Z,100774.81
2022-08-16T19:24:04.197Z,100785.94
2022-08-16T19:27:10.196Z,100788.81
2022-08-16T19:30:12.377Z,100796.97
2022-08-16T19:33:14.053Z,100795.25
2022-08-16T19:36:17.122Z,100803.38
2022-08-16T19:39:33.931Z,100808.19
2022-08-16T19:42:36.926Z,100803.47
2022-08-16T19:45:45.387Z,100815.00
2022-08-16T19:48:47.753Z,100815.59
2022-08-16T19:51:49.460Z,100809.91
2022-08-16T19:54:55.063Z,100813.22
2022-08-16T19:57:57.446Z,100806.69
2022-08-16T20:00:59.196Z,100819.22
2022-08-16T20:04:02.267Z,100811.63
2022-08-16T20:07:03.922Z,100820.19
2022-08-16T20:10:07.525Z,100808.19
2022-08-16T20:13:14.864Z,100808.38
2022-08-16T20:16:17.604Z,100815.16
2022-08-16T20:19:19.269Z,100821.94
2022-08-16T20:22:42.218Z,100833.16
2022-08-16T20:25:50.028Z,100828.06
2022-08-16T20:28:54.651Z,100831.09
2022-08-16T20:31:56.861Z,100831.41
2022-08-16T20:34:58.436Z,100836.09
2022-08-16T20:38:01.780Z,100839.59
2022-08-16T20:41:03.590Z,100844.06
2022-08-16T20:44:05.188Z,100832.94
2022-08-16T20:47:10.105Z,100835.78
2022-08-16T20:50:11.776Z,100842.31
2022-08-16T20:53:13.406Z,100838.03
2022-08-16T20:56:15.054Z,100842.53
2022-08-16T20:59:17.325Z,100855.00
2022-08-16T21:02:25.472Z,100854.88
2022-08-16T21:05:31.204Z,100847.84
2022-08-16T21:08:52.432Z,100852.34
2022-08-16T21:11:57.340Z,100858.03
2022-08-16T21:15:07.011Z,100858.97
2022-08-16T21:18:09.061Z,100863.25
2022-08-16T21:21:12.126Z,100866.88
2022-08-16T21:24:14.421Z,100864.91
2022-08-16T21:27:17.637Z,100870.25
2022-08-16T21:30:20.930Z,100871.78
2022-08-16T21:33:28.145Z,100874.38
2022-08-16T21:36:35.624Z,100884.56
2022-08-16T21:39:39.172Z,100880.03
2022-08-16T21:42:43.467Z,100878.41
2022-08-16T21:45:46.835Z,100873.25
2022-08-16T21:48:48.424Z,100870.75
2022-08-16T21:51:50.841Z,100869.59
2022-08-16T21:54:54.141Z,100868.25
2022-08-16T21:57:58.235Z,100869.44
2022-08-16T22:01:01.006Z,100877.97
2022-08-16T22:04:36.710Z,100879.28
2022-08-16T22:07:26.088Z,100882.56
2022-08-16T22:11:06.220Z,100891.88
2022-08-16T22:13:58.762Z,100887.53
2022-08-16T22:17:00.961Z,100893.56
2022-08-16T22:20:06.566Z,100893.94
2022-08-16T22:23:12.892Z,100893.97
2022-08-16T22:26:15.790Z,100894.84
2022-08-16T22:29:17.372Z,100900.66
2022-08-16T22:32:18.974Z,100896.66
2022-08-16T22:35:20.681Z,100899.53
2022-08-16T22:38:54.139Z,100894.47
2022-08-16T22:41:45.684Z,100897.19
2022-08-16T22:44:47.707Z,100894.19
2022-08-16T22:47:50.220Z,100895.22
2022-08-16T22:50:52.982Z,100889.44
2022-08-16T22:53:56.157Z,100895.84
2022-08-16T22:56:57.913Z,100899.56
2022-08-16T22:59:59.515Z,100903.28
2022-08-16T23:03:04.601Z,100909.84
2022-08-16T23:06:07.207Z,100909.81
2022-08-16T23:09:09.143Z,100914.06
2022-08-16T23:12:11.516Z,100912.00
2022-08-16T23:15:13.698Z,100903.72
2022-08-16T23:18:16.703Z,100906.91
2022-08-16T23:21:18.452Z,100902.69
2022-08-16T23:24:20.597Z,100898.41
2022-08-16T23:27:22.445Z,100894.19
2022-08-16T23:30:25.654Z,100899.38
2022-08-16T23:33:28.521Z,100896.16
2022-08-16T23:36:30.061Z,100889.56
2022-08-16T23:39:31.803Z,100896.31
2022-08-16T23:42:41.911Z,100889.50
2022-08-16T23:46:00.620Z,100887.13
2022-08-16T23:50:02.379Z,100883.06
2022-08-16T23:52:42.263Z,100880.00
2022-08-16T23:55:50.229Z,100882.66
2022-08-16T23:58:58.284Z,100879.94
